createdAt,value
2023-10-10T00:01:44.061Z,12.13
2023-10-10T00:04:14.827Z,9.88
2023-10-10T00:06:42.154Z,11.90
2023-10-10T00:09:12.802Z,10.35
2023-10-10T00:11:46.970Z,11.40
2023-10-10T00:14:20.121Z,9.32
2023-10-10T00:16:56.484Z,9.50
2023-10-10T00:19:45.125Z,8.90
2023-10-10T00:22:12.722Z,11.23
2023-10-10T00:24:40.050Z,9.02
2023-10-10T00:27:15.721Z,8.80
2023-10-10T00:32:18.500Z,7.53
2023-10-10T00:34:48.600Z,9.30
2023-10-10T00:37:26.484Z,11.02
2023-10-10T00:40:03.736Z,9.95
2023-10-10T00:42:42.763Z,8.80
2023-10-10T00:45:13.504Z,10.20
2023-10-10T00:47:50.348Z,9.32
2023-10-10T00:50:19.801Z,7.50
2023-10-10T00:52:53.630Z,9.48
2023-10-10T00:55:25.928Z,8.80
2023-10-10T00:58:00.329Z,10.32
2023-10-10T01:00:31.514Z,8.32
2023-10-10T01:03:08.732Z,8.55
2023-10-10T01:05:53.499Z,8.88
2023-10-10T01:08:21.256Z,8.80
2023-10-10T01:10:50.573Z,8.95
2023-10-10T01:13:18.506Z,9.80
2023-10-10T01:15:45.403Z,10.27
2023-10-10T01:18:15.625Z,14.38
2023-10-10T01:20:50.471Z,8.98
2023-10-10T01:23:20.018Z,9.27
2023-10-10T01:28:22.166Z,6.55
2023-10-10T01:30:55.835Z,8.60
2023-10-10T01:33:25.645Z,10.57
2023-10-10T01:35:57.040Z,9.48
2023-10-10T01:38:42.775Z,10.70
2023-10-10T01:41:16.731Z,9.88
2023-10-10T01:43:47.352Z,12.15
2023-10-10T01:46:29.974Z,11.88
2023-10-10T01:48:58.351Z,10.20
2023-10-10T01:51:28.495Z,9.93
2023-10-10T01:53:56.866Z,10.77
2023-10-10T01:56:24.769Z,10.60
2023-10-10T01:58:55.214Z,10.85
2023-10-10T02:01:25.341Z,12.77
2023-10-10T02:03:54.473Z,11.00
2023-10-10T02:06:29.308Z,11.68
2023-10-10T02:09:32.459Z,11.98
2023-10-10T02:12:09.483Z,10.48
2023-10-10T02:14:36.574Z,10.43
2023-10-10T02:17:10.989Z,11.77
2023-10-10T02:19:42.337Z,13.15
2023-10-10T02:22:29.034Z,11.73
2023-10-10T02:25:14.672Z,10.43
2023-10-10T02:27:56.376Z,10.85
2023-10-10T02:30:36.717Z,10.93
2023-10-10T02:33:20.989Z,12.63
2023-10-10T02:35:55.779Z,13.10
2023-10-10T02:38:40.462Z,12.43
2023-10-10T02:41:22.506Z,10.25
2023-10-10T02:43:57.925Z,11.73
2023-10-10T02:46:40.240Z,10.13
2023-10-10T02:49:23.805Z,9.40
2023-10-10T02:51:56.745Z,10.00
2023-10-10T02:54:58.286Z,10.23
2023-10-10T02:57:28.131Z,11.20
2023-10-10T03:00:26.198Z,10.65
2023-10-10T03:02:56.528Z,9.82
2023-10-10T03:05:44.430Z,13.13
2023-10-10T03:08:20.055Z,9.05
2023-10-10T03:10:55.827Z,11.82
2023-10-10T03:13:38.136Z,8.77
2023-10-10T03:16:15.493Z,9.88
2023-10-10T03:19:01.022Z,9.73
2023-10-10T03:21:47.123Z,10.02
2023-10-10T03:24:21.026Z,10.68
2023-10-10T03:26:48.120Z,10.35
2023-10-10T03:29:33.929Z,12.50
2023-10-10T03:32:22.936Z,12.30
2023-10-10T03:35:05.730Z,10.13
2023-10-10T03:37:55.573Z,10.13
2023-10-10T03:40:28.519Z,9.55
2023-10-10T03:43:13.842Z,11.23
2023-10-10T03:46:02.675Z,9.27
2023-10-10T03:48:48.562Z,10.15
2023-10-10T03:51:34.274Z,9.40
2023-10-10T03:54:19.563Z,11.27
2023-10-10T03:57:05.280Z,11.48
2023-10-10T03:59:50.672Z,8.90
2023-10-10T04:02:36.369Z,8.88
2023-10-10T04:05:27.898Z,11.63
2023-10-10T04:08:13.883Z,9.18
2023-10-10T04:11:05.539Z,8.93
2023-10-10T04:13:51.118Z,8.45
2023-10-10T04:16:36.675Z,8.70
2023-10-10T04:19:24.017Z,10.30
2023-10-10T04:22:09.249Z,9.27
2023-10-10T04:24:55.131Z,10.02
2023-10-10T04:27:40.978Z,9.95
2023-10-10T04:30:37.879Z,8.95
2023-10-10T04:33:24.333Z,8.13
2023-10-10T04:36:10.100Z,12.10
2023-10-10T04:38:55.956Z,9.25
2023-10-10T04:41:41.650Z,11.02
2023-10-10T04:44:27.238Z,13.50
2023-10-10T04:47:15.456Z,14.38
2023-10-10T04:50:00.867Z,11.93
2023-10-10T04:52:46.312Z,14.23
2023-10-10T04:55:32.199Z,13.90
2023-10-10T04:58:17.599Z,13.55
2023-10-10T05:01:03.164Z,13.05
2023-10-10T05:03:49.016Z,13.20
2023-10-10T05:06:36.282Z,13.38
2023-10-10T05:09:22.462Z,16.90
2023-10-10T05:12:08.292Z,15.75
2023-10-10T05:14:54.364Z,13.00
2023-10-10T05:17:40.133Z,14.27
2023-10-10T05:20:25.936Z,14.15
2023-10-10T05:23:11.583Z,16.15
2023-10-10T05:25:43.949Z,14.75
2023-10-10T05:28:12.069Z,15.23
2023-10-10T05:30:47.174Z,17.38
2023-10-10T05:33:15.244Z,15.85
2023-10-10T05:35:49.848Z,17.20
2023-10-10T05:38:18.302Z,16.17
2023-10-10T05:40:48.361Z,15.23
2023-10-10T05:43:18.960Z,16.50
2023-10-10T05:45:51.835Z,15.90
2023-10-10T05:48:18.900Z,15.40
2023-10-10T05:50:45.892Z,17.63
2023-10-10T05:53:12.826Z,15.82
2023-10-10T05:55:39.800Z,17.10
2023-10-10T05:58:07.104Z,17.40
2023-10-10T06:00:43.254Z,17.60
2023-10-10T06:03:11.469Z,15.98
2023-10-10T06:05:45.485Z,15.40
2023-10-10T06:08:14.416Z,16.85
2023-10-10T06:10:41.393Z,16.92
2023-10-10T06:13:08.698Z,17.63
2023-10-10T06:15:36.686Z,16.17
2023-10-10T06:18:19.607Z,18.60
2023-10-10T06:21:07.014Z,14.45
2023-10-10T06:23:36.945Z,16.63
2023-10-10T06:26:08.731Z,17.40
2023-10-10T06:28:49.096Z,14.80
2023-10-10T06:33:51.883Z,16.65
2023-10-10T06:36:23.643Z,15.90
2023-10-10T06:39:01.185Z,17.40
2023-10-10T06:41:29.425Z,14.70
2023-10-10T06:43:58.706Z,14.80
2023-10-10T06:46:33.573Z,18.45
2023-10-10T06:49:05.806Z,16.92
2023-10-10T06:51:34.715Z,16.45
2023-10-10T06:54:04.678Z,19.20
2023-10-10T06:56:47.089Z,16.42
2023-10-10T06:59:21.973Z,17.00
2023-10-10T07:01:51.273Z,17.30
2023-10-10T07:04:20.261Z,15.52
2023-10-10T07:06:49.072Z,16.08
2023-10-10T07:09:18.720Z,17.63
2023-10-10T07:14:13.564Z,13.05
2023-10-10T07:16:44.313Z,13.48
2023-10-10T07:19:27.674Z,17.38
2023-10-10T07:21:55.356Z,15.23
2023-10-10T07:24:29.901Z,16.75
2023-10-10T07:27:05.350Z,18.67
2023-10-10T07:29:52.187Z,16.88
2023-10-10T07:32:19.136Z,19.17
2023-10-10T07:34:53.366Z,16.77
2023-10-10T07:37:20.667Z,20.30
2023-10-10T07:39:56.735Z,16.77
2023-10-10T07:42:32.250Z,16.83
2023-10-10T07:45:02.347Z,18.63
2023-10-10T07:47:31.024Z,18.45
2023-10-10T07:50:00.971Z,18.70
2023-10-10T07:52:27.846Z,16.25
2023-10-10T07:54:55.411Z,17.90
2023-10-10T07:57:29.819Z,20.25
2023-10-10T08:00:00.055Z,18.48
2023-10-10T08:02:33.792Z,19.40
2023-10-10T08:05:12.234Z,18.60
2023-10-10T08:07:39.117Z,18.35
2023-10-10T08:10:24.944Z,18.00
2023-10-10T08:12:54.655Z,19.48
2023-10-10T08:15:21.941Z,19.70
2023-10-10T08:17:54.111Z,18.35
2023-10-10T08:20:35.363Z,17.55
2023-10-10T08:23:04.778Z,19.83
2023-10-10T08:25:32.107Z,17.85
2023-10-10T08:28:01.810Z,20.75
2023-10-10T08:30:28.782Z,18.80
2023-10-10T08:32:59.825Z,19.33
2023-10-10T08:35:30.839Z,19.05
2023-10-10T08:37:58.353Z,17.35
2023-10-10T08:40:35.029Z,22.75
2023-10-10T08:43:04.004Z,19.92
2023-10-10T08:45:41.187Z,19.92
2023-10-10T08:48:14.085Z,17.30
2023-10-10T08:50:42.412Z,20.58
2023-10-10T08:53:14.000Z,18.70
2023-10-10T08:55:41.908Z,19.55
2023-10-10T08:58:11.767Z,17.77
2023-10-10T09:00:39.293Z,18.00
2023-10-10T09:03:10.262Z,18.48
2023-10-10T09:05:38.080Z,15.68
2023-10-10T09:08:28.702Z,18.05
2023-10-10T09:10:59.877Z,16.35
2023-10-10T09:13:27.198Z,14.93
2023-10-10T09:15:55.503Z,15.45
2023-10-10T09:18:24.457Z,16.08
2023-10-10T09:20:54.530Z,15.50
2023-10-10T09:23:26.493Z,16.83
2023-10-10T09:26:13.697Z,15.60
2023-10-10T09:28:50.202Z,16.52
2023-10-10T09:31:33.478Z,15.48
2023-10-10T09:34:04.842Z,15.52
2023-10-10T09:36:39.473Z,15.75
2023-10-10T09:39:11.178Z,14.88
2023-10-10T09:41:58.736Z,14.35
2023-10-10T09:44:26.585Z,14.95
2023-10-10T09:47:05.425Z,13.52
2023-10-10T09:49:53.303Z,12.63
2023-10-10T09:55:14.430Z,14.93
2023-10-10T09:58:02.641Z,14.23
2023-10-10T10:00:37.205Z,12.75
2023-10-10T10:03:24.797Z,13.30
2023-10-10T10:06:22.703Z,12.73
2023-10-10T10:09:22.616Z,12.13
2023-10-10T10:11:53.032Z,15.40
2023-10-10T10:15:04.909Z,12.60
2023-10-10T10:17:48.805Z,11.07
2023-10-10T10:21:09.915Z,12.82
2023-10-10T10:23:56.443Z,10.18
2023-10-10T10:26:33.447Z,11.38
2023-10-10T10:29:16.624Z,10.73
2023-10-10T10:31:58.768Z,13.63
2023-10-10T10:34:36.382Z,10.30
2023-10-10T10:37:21.347Z,10.50
2023-10-10T10:40:27.365Z,11.85
2023-10-10T10:42:56.662Z,9.13
2023-10-10T10:45:45.110Z,11.73
2023-10-10T10:48:42.632Z,10.18
2023-10-10T10:51:26.438Z,9.80
2023-10-10T10:54:03.646Z,10.20
2023-10-10T10:56:30.947Z,9.45
2023-10-10T10:59:22.760Z,11.43
2023-10-10T11:01:57.199Z,10.13
2023-10-10T11:04:34.503Z,9.15
2023-10-10T11:07:08.828Z,9.30
2023-10-10T11:09:38.793Z,9.20
2023-10-10T11:12:10.205Z,9.48
2023-10-10T11:14:48.098Z,11.15
2023-10-10T11:17:19.985Z,9.18
2023-10-10T11:19:48.687Z,10.73
2023-10-10T11:22:34.767Z,9.32
2023-10-10T11:25:05.999Z,10.15
2023-10-10T11:27:45.699Z,9.18
2023-10-10T11:30:20.595Z,8.63
2023-10-10T11:32:48.461Z,8.68
2023-10-10T11:35:27.746Z,7.95
2023-10-10T11:38:01.235Z,10.15
2023-10-10T11:40:32.188Z,8.35
2023-10-10T11:43:07.798Z,7.88
2023-10-10T11:56:12.554Z,8.15
2023-10-10T11:58:39.491Z,6.78
2023-10-10T12:01:12.049Z,6.53
2023-10-10T12:03:42.713Z,8.32
2023-10-10T12:06:20.780Z,8.35
2023-10-10T12:08:53.816Z,6.13
2023-10-10T12:11:21.873Z,7.47
2023-10-10T12:16:28.929Z,7.13
2023-10-10T12:18:56.138Z,7.63
2023-10-10T12:21:24.084Z,7.10
2023-10-10T12:24:00.453Z,6.30
2023-10-10T12:26:30.945Z,7.95
2023-10-10T12:28:59.482Z,7.10
2023-10-10T12:31:26.403Z,5.55
2023-10-10T12:33:56.108Z,9.00
2023-10-10T12:36:23.487Z,4.97
2023-10-10T12:38:50.565Z,7.55
2023-10-10T12:41:22.322Z,5.32
2023-10-10T12:43:50.372Z,6.43
2023-10-10T12:46:23.881Z,6.50
2023-10-10T12:48:54.354Z,5.35
2023-10-10T12:51:25.371Z,6.03
2023-10-10T12:54:01.925Z,5.28
2023-10-10T12:56:29.870Z,5.68
2023-10-10T12:59:19.072Z,8.60
2023-10-10T13:01:56.758Z,5.70
2023-10-10T13:04:30.559Z,7.13
2023-10-10T13:07:04.256Z,6.28
2023-10-10T13:09:43.597Z,4.68
2023-10-10T13:12:19.520Z,5.18
2023-10-10T13:14:51.971Z,5.45
2023-10-10T13:17:24.874Z,5.20
2023-10-10T13:19:53.518Z,5.88
2023-10-10T13:22:23.049Z,5.65
2023-10-10T13:24:50.644Z,4.60
2023-10-10T13:27:19.028Z,7.65
2023-10-10T13:29:46.305Z,5.70
2023-10-10T13:32:13.252Z,5.65
2023-10-10T13:34:40.226Z,4.93
2023-10-10T13:37:09.051Z,4.85
2023-10-10T13:39:45.088Z,6.55
2023-10-10T13:42:18.998Z,5.45
2023-10-10T13:44:46.541Z,6.53
2023-10-10T13:47:13.435Z,4.95
2023-10-10T13:49:46.079Z,7.13
2023-10-10T13:52:14.386Z,5.10
2023-10-10T13:54:41.400Z,6.50
2023-10-10T13:57:08.954Z,6.57
2023-10-10T13:59:36.431Z,5.03
2023-10-10T14:02:05.759Z,5.03
2023-10-10T14:04:47.445Z,8.90
2023-10-10T14:07:18.022Z,7.43
2023-10-10T14:10:02.510Z,5.88
2023-10-10T14:12:33.522Z,5.72
2023-10-10T14:15:05.816Z,6.47
2023-10-10T14:17:32.756Z,5.05
2023-10-10T14:20:00.598Z,5.13
2023-10-10T14:22:30.272Z,4.75
2023-10-10T14:25:04.958Z,6.35
2023-10-10T14:27:31.817Z,6.43
2023-10-10T14:29:59.242Z,6.80
2023-10-10T14:32:38.626Z,5.60
2023-10-10T14:35:06.545Z,9.00
2023-10-10T14:37:45.471Z,5.65
2023-10-10T14:40:20.196Z,5.57
2023-10-10T14:42:47.027Z,6.93
2023-10-10T14:45:14.295Z,6.95
2023-10-10T14:47:44.963Z,4.53
2023-10-10T14:50:16.517Z,5.80
2023-10-10T14:52:48.954Z,6.78
2023-10-10T14:55:25.704Z,4.88
2023-10-10T14:57:57.261Z,5.03
2023-10-10T15:00:30.914Z,4.70
2023-10-10T15:02:58.113Z,4.55
2023-10-10T15:05:26.932Z,6.28
2023-10-10T15:07:56.808Z,4.10
2023-10-10T15:10:28.045Z,5.32
2023-10-10T15:12:55.480Z,5.00
2023-10-10T15:15:24.273Z,4.68
2023-10-10T15:17:52.284Z,5.05
2023-10-10T15:20:19.568Z,3.90
2023-10-10T15:22:47.311Z,6.82
2023-10-10T15:25:14.824Z,3.83
2023-10-10T15:27:42.825Z,3.95
2023-10-10T15:30:10.432Z,4.38
2023-10-10T15:32:49.530Z,5.05
2023-10-10T15:35:18.547Z,5.30
2023-10-10T15:37:45.644Z,4.03
2023-10-10T15:40:14.654Z,3.88
2023-10-10T15:42:42.125Z,4.20
2023-10-10T15:45:09.403Z,4.38
2023-10-10T15:47:36.340Z,3.78
2023-10-10T15:50:03.832Z,4.65
2023-10-10T15:52:34.941Z,5.32
2023-10-10T15:55:06.826Z,4.30
2023-10-10T15:57:37.096Z,5.90
2023-10-10T16:00:11.751Z,3.55
2023-10-10T16:02:41.172Z,6.18
2023-10-10T16:05:08.305Z,6.28
2023-10-10T16:07:35.461Z,4.95
2023-10-10T16:10:03.965Z,3.53
2023-10-10T16:12:30.908Z,5.65
2023-10-10T16:14:57.691Z,4.78
2023-10-10T16:17:24.660Z,4.60
2023-10-10T16:19:51.768Z,4.35
2023-10-10T16:22:18.617Z,4.40
2023-10-10T16:24:45.848Z,5.05
2023-10-10T16:27:12.741Z,7.43
2023-10-10T16:29:39.791Z,3.13
2023-10-10T16:32:09.026Z,4.82
2023-10-10T16:34:43.419Z,3.92
2023-10-10T16:37:16.071Z,4.50
2023-10-10T16:39:48.053Z,2.80
2023-10-10T16:42:19.872Z,3.67
2023-10-10T16:44:47.720Z,4.25
2023-10-10T16:47:19.152Z,3.03
2023-10-10T16:49:52.454Z,5.53
2023-10-10T16:52:41.955Z,4.25
2023-10-10T16:55:14.169Z,4.00
2023-10-10T16:57:41.584Z,3.90
2023-10-10T17:00:17.006Z,4.70
2023-10-10T17:02:47.506Z,5.95
2023-10-10T17:05:14.880Z,3.78
2023-10-10T17:07:42.519Z,3.28
2023-10-10T17:10:15.324Z,3.60
2023-10-10T17:12:43.568Z,3.47
2023-10-10T17:15:23.002Z,5.28
2023-10-10T17:17:50.276Z,4.00
2023-10-10T17:20:17.505Z,4.38
2023-10-10T17:22:49.712Z,3.65
2023-10-10T17:25:16.772Z,3.92
2023-10-10T17:27:45.107Z,4.05
2023-10-10T17:30:15.564Z,4.50
2023-10-10T17:32:43.924Z,4.55
2023-10-10T17:35:11.554Z,5.18
2023-10-10T17:37:38.790Z,3.22
2023-10-10T17:40:06.810Z,3.65
2023-10-10T17:42:36.185Z,4.43
2023-10-10T17:45:04.957Z,4.93
2023-10-10T17:47:32.228Z,5.25
2023-10-10T17:49:59.386Z,7.28
2023-10-10T17:52:26.547Z,6.50
2023-10-10T17:54:54.746Z,3.47
2023-10-10T17:57:23.332Z,3.60
2023-10-10T17:59:53.940Z,5.72
2023-10-10T18:02:24.289Z,4.22
2023-10-10T18:04:52.077Z,4.88
2023-10-10T18:07:25.001Z,4.72
2023-10-10T18:09:55.588Z,5.07
2023-10-10T18:12:23.852Z,4.07
2023-10-10T18:14:54.856Z,3.28
2023-10-10T18:17:23.519Z,3.28
2023-10-10T18:19:51.185Z,3.60
2023-10-10T18:22:19.881Z,4.63
2023-10-10T18:24:48.786Z,8.95
2023-10-10T18:27:18.214Z,4.18
2023-10-10T18:29:45.167Z,6.55
2023-10-10T18:32:12.361Z,4.57
2023-10-10T18:34:42.717Z,4.00
2023-10-10T18:37:12.837Z,4.22
2023-10-10T18:39:40.029Z,3.45
2023-10-10T18:42:10.733Z,4.93
2023-10-10T18:44:38.745Z,3.92
2023-10-10T18:47:06.167Z,3.22
2023-10-10T18:49:34.834Z,2.95
2023-10-10T18:52:02.096Z,3.58
2023-10-10T18:54:31.986Z,3.92
2023-10-10T18:57:02.288Z,3.97
2023-10-10T18:59:29.600Z,3.28
2023-10-10T19:01:57.570Z,7.18
2023-10-10T19:04:26.073Z,4.95
2023-10-10T19:06:54.339Z,4.15
2023-10-10T19:09:24.478Z,5.20
2023-10-10T19:11:58.649Z,5.00
2023-10-10T19:14:37.853Z,5.00
2023-10-10T19:17:05.893Z,5.05
2023-10-10T19:19:33.055Z,3.33
2023-10-10T19:22:01.085Z,6.25
2023-10-10T19:24:28.533Z,4.28
2023-10-10T19:26:55.567Z,4.35
2023-10-10T19:29:22.630Z,3.20
2023-10-10T19:31:50.121Z,7.00
2023-10-10T19:34:17.347Z,3.30
2023-10-10T19:36:49.200Z,3.75
2023-10-10T19:39:21.049Z,4.75
2023-10-10T19:41:48.138Z,3.67
2023-10-10T19:44:16.078Z,3.85
2023-10-10T19:46:43.377Z,4.22
2023-10-10T19:49:15.899Z,3.85
2023-10-10T19:51:45.953Z,6.72
2023-10-10T19:54:14.382Z,4.55
2023-10-10T19:56:44.032Z,3.70
2023-10-10T19:59:11.352Z,4.07
2023-10-10T20:01:38.524Z,6.03
2023-10-10T20:06:34.380Z,6.25
2023-10-10T20:09:01.675Z,2.95
2023-10-10T20:11:30.026Z,3.75
2023-10-10T20:13:56.987Z,5.15
2023-10-10T20:19:23.590Z,3.90
2023-10-10T20:21:50.452Z,5.32
2023-10-10T20:24:17.326Z,4.32
2023-10-10T20:26:44.192Z,4.03
2023-10-10T20:29:11.396Z,3.00
2023-10-10T20:31:38.243Z,3.97
2023-10-10T20:34:05.123Z,4.05
2023-10-10T20:36:32.144Z,4.78
2023-10-10T20:38:59.710Z,2.90
2023-10-10T20:41:26.737Z,4.65
2023-10-10T20:43:54.758Z,4.60
2023-10-10T20:46:21.674Z,3.75
2023-10-10T20:48:48.999Z,4.10
2023-10-10T20:51:16.147Z,4.40
2023-10-10T20:53:43.579Z,4.55
2023-10-10T20:56:10.834Z,4.32
2023-10-10T20:58:39.500Z,5.10
2023-10-10T21:01:10.968Z,3.17
2023-10-10T21:03:39.449Z,5.32
2023-10-10T21:06:06.587Z,3.92
2023-10-10T21:08:33.962Z,5.32
2023-10-10T21:11:01.177Z,6.28
2023-10-10T21:13:27.999Z,4.85
2023-10-10T21:15:54.834Z,4.97
2023-10-10T21:18:21.844Z,4.63
2023-10-10T21:21:02.769Z,6.07
2023-10-10T21:25:58.557Z,4.80
2023-10-10T21:28:26.401Z,3.42
2023-10-10T21:30:53.880Z,4.22
2023-10-10T21:33:21.042Z,3.95
2023-10-10T21:35:50.695Z,3.97
2023-10-10T21:38:18.753Z,3.95
2023-10-10T21:40:45.684Z,4.07
2023-10-10T21:43:12.659Z,5.10
2023-10-10T21:45:40.380Z,4.97
2023-10-10T21:48:11.223Z,3.72
2023-10-10T21:50:40.384Z,3.92
2023-10-10T21:53:09.086Z,4.20
2023-10-10T21:55:38.459Z,4.05
2023-10-10T21:58:06.392Z,4.35
2023-10-10T22:00:33.610Z,4.35
2023-10-10T22:03:08.383Z,4.80
2023-10-10T22:05:36.581Z,5.07
2023-10-10T22:08:08.021Z,4.97
2023-10-10T22:10:36.472Z,3.28
2023-10-10T22:13:05.521Z,3.85
2023-10-10T22:15:38.504Z,4.38
2023-10-10T22:18:06.136Z,6.32
2023-10-10T22:20:39.678Z,4.18
2023-10-10T22:23:06.660Z,6.13
2023-10-10T22:25:36.413Z,5.18
2023-10-10T22:28:05.052Z,4.90
2023-10-10T22:30:39.171Z,6.10
2023-10-10T22:33:11.228Z,4.63
2023-10-10T22:35:39.284Z,5.60
2023-10-10T22:38:06.955Z,4.75
2023-10-10T22:40:34.641Z,5.25
2023-10-10T22:43:04.143Z,5.15
2023-10-10T22:48:09.298Z,3.75
2023-10-10T22:50:37.066Z,4.38
2023-10-10T22:53:05.876Z,6.75
2023-10-10T22:55:37.002Z,4.13
2023-10-10T22:58:08.682Z,4.78
2023-10-10T23:00:40.205Z,7.07
2023-10-10T23:03:11.148Z,6.32
2023-10-10T23:05:44.213Z,5.90
2023-10-10T23:08:12.372Z,4.32
2023-10-10T23:10:40.931Z,4.18
2023-10-10T23:13:08.368Z,4.32
2023-10-10T23:15:38.145Z,6.32
2023-10-10T23:18:11.398Z,5.30
2023-10-10T23:20:42.479Z,5.43
2023-10-10T23:23:11.182Z,6.90
2023-10-10T23:28:13.400Z,8.13
2023-10-10T23:30:41.960Z,5.15
2023-10-10T23:33:13.957Z,5.57
2023-10-10T23:35:41.656Z,6.07
2023-10-10T23:38:09.749Z,5.40
2023-10-10T23:40:40.446Z,6.40
2023-10-10T23:43:09.213Z,5.70
2023-10-10T23:45:43.165Z,6.00
2023-10-10T23:48:17.699Z,5.32
2023-10-10T23:50:45.642Z,5.60
2023-10-10T23:53:16.518Z,5.50
2023-10-10T23:55:48.218Z,4.82
2023-10-10T23:58:16.412Z,6.22
